Arrowbear Lake, California
Current Conditions -  °F | °C
As of 6:35 PM on Thursday 20 Nov 2014 (Local Time) from KL35 Reporting Station
Clear Clear  
Wind Chill: 30°   Ceiling: Unl
Heat Index: 37°   Visibility: 10mi
Dew Point: 28°   Wind: 12mph
Humidity: 70%   Direction: 250°WSW
Pressure: 30.08"   Gusts: 17mph
Location:  34.1964°N, 117.089°W
Report Text: KL35 210235Z AUTO 25010G15KT 10SM CLR 03/M02 A3008 RMK AO2
Loading
Personal Weather Stations






























Interactive Weather Map New forecast layout! Learn more

10-Day Weather Forecast

Advertisements
Track Severe Weather on mobile